Nearby METAR Reports

 

KORH - Worcester, Massachusetts, USA
Distance from station: NW 4mi, 7km
Updated: Sat, 22-Feb-2020 4:54am EST
Clear
Clear
 Wind from WSW
Wind: WSW 12 mph , 19 km/h
Temperature: 23°F , -5°C
Wind Chill: 11°F , -12°C
Dew Point: 5°F , -15°C
Humidity: 46%
Barometer: 30.12 inHg , 1020 hPa
Clouds: Clear
Visibility: 10 miles , 16 km
2020/02/22 09:54 KORH 220954Z AUTO 25010KT 10SM CLR M05/M15 A3012 RMK AO2 SLP214 T10501150
KBOS - Boston, Massachusetts, USA
Distance from station: ENE 42mi, 68km
Updated: Sat, 22-Feb-2020 4:54am EST
Partly cloudy
Partly cloudy
 Wind from SW
Wind: SW 13 mph , 20 km/h
Temperature: 30°F , -1°C
Wind Chill: 20°F , -7°C
Dew Point: 7°F , -14°C
Humidity: 37%
Barometer: 30.18 inHg , 1022 hPa
Clouds: Partly cloudy
Visibility: 10 miles , 16 km
Cloud details: Partly cloudy 25000 ft
2020/02/22 09:54 KBOS 220954Z 23011KT 10SM SCT250 M01/M14 A3018 RMK AO2 SLP217 T10111144
 
KCQX - Chatham, Massachusetts, USA
Distance from station: SE 102mi, 164km
Updated: Sat, 22-Feb-2020 5:52am EST
Clear
Clear
 Wind from WSW
Wind: WSW 7 mph , 11 km/h
Temperature: 34°F , 1°C
Wind Chill: 28°F , -2°C
Dew Point: 21°F , -6°C
Humidity: 60%
Barometer: 30.22 inHg , 1023.4 hPa
Clouds: Clear
Visibility: 10 miles , 16 km
2020/02/22 10:52 KCQX 221052Z AUTO 25006KT 10SM CLR 01/M06 A3022 RMK AO2 SLP234 T00061061
KMVY - Marthas Vineyard, Massachusetts, USA
Distance from station: SE 84mi, 135km
Updated: Sat, 22-Feb-2020 5:53am EST
Clear
Clear
 Wind from W
Wind: W 7 mph , 11 km/h
Temperature: 34°F , 1°C
Wind Chill: 28°F , -2°C
Dew Point: 18°F , -8°C
Humidity: 51%
Barometer: 30.22 inHg , 1023.4 hPa
Clouds: Clear
Visibility: 10 miles , 16 km
2020/02/22 10:53 KMVY 221053Z AUTO 27006KT 10SM CLR 01/M08 A3022 RMK AO2 SLP234 T00061083
 
KPVC - Provincetown, Massachusetts, USA
Distance from station: NNW 85mi, 136km
Updated: Sat, 22-Feb-2020 4:56am EST
Clear
Clear
 Wind from WSW
Wind: WSW 18 mph , 30 km/h, Gust: 25 mph , 41 km/h
Temperature: 32°F , 0°C
Wind Chill: 21°F , -6°C
Dew Point: 19°F , -7°C
Humidity: 60%
Barometer: 30.20 inHg , 1022.7 hPa
Clouds: Clear
Visibility: 10 miles , 16 km
2020/02/22 09:56 KPVC 220956Z AUTO 24016G22KT 10SM CLR 00/M07 A3020 RMK AO2 SLP225 T00001072 FZRANO
KAQW - Savoy, Massachusetts, USA
Distance from station: NNW 66mi, 106km
Updated: Sat, 22-Feb-2020 5:52am EST
Clear
Clear
 Wind from WNW
Wind: WNW 9 mph , 15 km/h
Temperature: 16°F , -9°C
Wind Chill: 5°F , -15°C
Dew Point: 7°F , -14°C
Humidity: 67%
Barometer: 30.17 inHg , 1021.7 hPa
Clouds: Clear
Visibility: 10 miles , 16 km
2020/02/22 10:52 KAQW 221052Z AUTO 29008KT 10SM CLR M09/M14 A3017 RMK AO2 SLP228 T10941144
 
KIZG - Fryeburg, Maine, USA
Distance from station: NNE 133mi, 214km
Updated: Sat, 22-Feb-2020 4:54am EST
Clear
Clear
 Wind from calm
Wind: Calm
Temperature: 10°F , -12°C
Dew Point: 1°F , -17°C
Humidity: 67%
Barometer: 30.05 inHg , 1017.6 hPa
Clouds: Clear
Visibility: 10 miles , 16 km
2020/02/22 09:54 KIZG 220954Z AUTO 00000KT 10SM CLR M12/M17 A3005 RMK AO2 SLP184 T11221172
KMWN - Mt Washington, New Hampshire, USA
Distance from station: NNE 146mi, 234km
Updated: Sat, 22-Feb-2020 3:55am EST
NOT Current
Partly cloudy
Partly cloudy
 Wind from W
Wind: W 67 mph , 107 km/h
Temperature: 1°F , -17°C
Wind Chill: -33°F , -36°C
Dew Point: -8°F , -22°C
Humidity: 65%
Clouds: Partly cloudy
Visibility: 100 miles , 160 km
Cloud details: Few Clouds 4000 ft
Few Clouds 10000 ft
Partly cloudy 18000 ft
2020/02/22 08:55 KMWN 220855Z 28058KT 100SM FEW040 FEW100 SCT180 M17/M22 RMK
 
KBML - Berlin, New Hampshire, USA
Distance from station: NNE 160mi, 257km
Updated: Sat, 22-Feb-2020 5:52am EST
Clear
Clear
 Wind from calm
Wind: Calm
Temperature: -9°F , -23°C
Dew Point: -15°F , -26°C
Humidity: 77%
Barometer: 30.02 inHg , 1016.6 hPa
Clouds: Clear
Visibility: 10 miles , 16 km
2020/02/22 10:52 KBML 221052Z AUTO 00000KT 10SM CLR M23/M26 A3002 RMK AO2 SLP197 T12281261